Terminal Aerodrome Forecast
Issued by NWS

Home | Current Version | Previous Version | Text Only | Print | Product List | Glossary On
Versions: 1 2 3 4 5 6 7 8 9 10 11 12 13 14 15 16 17 18 19 20 21 22 23 24 25 26
154
FTUS46 KSEW 220537
TAFSEA
TAF
KSEA 220537Z 2206/2312 19015G25KT 5SM -RA BR BKN009 OVC015
     FM221300 22015G25KT 6SM -RA BR SCT009 OVC018
     FM221500 21012G24KT P6SM -SHRA BKN020 OVC050
     FM221800 20012G22KT P6SM VCSH SCT030 BKN050=

USA.gov is the U.S. government's official web portal to all federal, state and local government web resources and services.